Time;durP1;ratioP1;P1;durP2;ratioP2;P2;SDS_P1;SDS_P2;PMS_P1;PMS_P2;Temp;Humidity;BMP_temperature;BMP_pressure;BME280_temperature;BME280_humidity;BME280_pressure;Samples;Min_cycle;Max_cycle;Signal;HPM_P1;HPM_P2
2022/02/01 00:01:00;;;;;;;;;17.75;16.50;;;;;14.19;40.71;97433.38;6312186;22;107875;-80
2022/02/01 00:03:20;;;;;;;;;21.75;15.50;;;;;14.22;40.07;97443.75;6301382;22;101906;-80
2022/02/01 00:05:55;;;;;;;;;18.50;15.50;;;;;14.22;40.62;97438.31;6316071;22;102049;-80
2022/02/01 00:08:35;;;;;;;;;15.50;13.25;;;;;14.22;40.85;97448.38;6321920;22;101776;-80
2022/02/01 00:11:21;;;;;;;;;19.25;17.50;;;;;14.24;40.07;97455.19;6312262;22;107972;-80
2022/02/01 00:36:36;;;;;;;;;26.50;15.75;;;;;14.30;40.78;97472.38;6214831;22;102067;-80
2022/02/01 00:41:52;;;;;;;;;16.75;12.50;;;;;14.26;40.68;97480.22;6311792;22;102132;-79
2022/02/01 00:44:20;;;;;;;;;21.00;15.50;;;;;14.27;40.54;97486.50;6323243;22;103323;-79
2022/02/01 00:46:48;;;;;;;;;12.75;11.25;;;;;14.26;40.84;97484.84;6324450;22;101759;-80
2022/02/01 00:49:15;;;;;;;;;18.50;14.75;;;;;14.24;40.28;97484.25;6321713;22;101789;-80
2022/02/01 00:51:42;;;;;;;;;18.00;13.25;;;;;14.22;40.13;97487.25;6327568;22;101935;-80
2022/02/01 00:54:09;;;;;;;;;15.00;14.75;;;;;14.21;40.60;97488.31;6320515;22;103292;-79
2022/02/01 00:56:36;;;;;;;;;17.75;16.00;;;;;14.20;40.60;97488.56;6317573;22;101934;-79
2022/02/01 00:59:03;;;;;;;;;15.50;12.75;;;;;14.20;40.18;97486.66;6330844;22;102041;-80
2022/02/01 01:01:30;;;;;;;;;12.50;11.25;;;;;14.19;40.17;97492.34;6306099;22;101850;-80
2022/02/01 01:03:57;;;;;;;;;17.25;14.50;;;;;14.20;40.33;97491.28;6306269;22;103566;-80
2022/02/01 01:06:25;;;;;;;;;19.00;14.25;;;;;14.18;40.27;97486.09;6299585;22;102944;-80
2022/02/01 01:08:52;;;;;;;;;14.50;12.50;;;;;14.17;40.69;97491.78;6269459;22;102313;-80
2022/02/01 01:11:19;;;;;;;;;15.75;11.75;;;;;14.16;40.71;97496.41;6290189;22;102015;-79
2022/02/01 01:43:46;;;;;;;;;14.50;11.00;;;;;14.20;40.47;97515.75;6322501;22;102137;-80
2022/02/01 01:54:22;;;;;;;;;15.00;11.00;;;;;14.26;40.24;97533.78;6269166;22;101876;-80
2022/02/01 01:56:53;;;;;;;;;18.50;11.25;;;;;14.26;40.94;97531.91;6286668;22;103464;-80
2022/02/01 01:59:20;;;;;;;;;14.75;11.25;;;;;14.25;40.16;97529.41;6281289;22;102120;-80
2022/02/01 02:01:47;;;;;;;;;16.75;12.00;;;;;14.28;40.31;97540.59;6267271;22;102120;-80
2022/02/01 02:04:15;;;;;;;;;14.00;12.75;;;;;14.28;40.57;97535.16;6263391;22;101801;-80
2022/02/01 02:06:42;;;;;;;;;12.00;10.00;;;;;14.29;40.73;97541.44;6255763;22;103379;-80
2022/02/01 02:09:11;;;;;;;;;11.00;10.00;;;;;14.29;40.63;97533.28;6270840;22;103236;-80
2022/02/01 02:14:21;;;;;;;;;16.75;13.25;;;;;14.31;40.27;97542.03;6257544;22;101881;-79
2022/02/01 02:16:50;;;;;;;;;12.50;11.25;;;;;14.30;40.53;97532.22;6279735;22;103628;-80
2022/02/01 02:19:17;;;;;;;;;13.00;11.25;;;;;14.32;40.86;97532.75;6290595;22;101876;-79
2022/02/01 02:21:49;;;;;;;;;11.75;10.00;;;;;14.32;40.49;97540.13;6289988;22;102049;-79
2022/02/01 02:24:16;;;;;;;;;12.25;10.75;;;;;14.32;40.23;97559.16;6285298;22;101956;-80
2022/02/01 02:26:44;;;;;;;;;14.00;12.00;;;;;14.29;40.30;97553.13;6284159;22;103382;-79
2022/02/01 02:29:11;;;;;;;;;13.25;12.00;;;;;14.29;40.75;97558.56;6285251;22;101925;-80
2022/02/01 02:31:39;;;;;;;;;12.25;10.75;;;;;14.29;40.48;97568.63;6292080;22;102056;-80
2022/02/01 02:34:11;;;;;;;;;12.00;11.00;;;;;14.28;40.30;97566.97;6289564;22;101943;-80
2022/02/01 02:36:44;;;;;;;;;15.50;14.00;;;;;14.26;40.73;97575.41;6275709;22;108153;-80
2022/02/01 02:47:07;;;;;;;;;12.75;10.50;;;;;14.22;40.18;97574.25;6287861;22;108160;-80
2022/02/01 02:49:34;;;;;;;;;12.00;11.00;;;;;14.21;40.07;97575.31;6279873;22;102093;-80
2022/02/01 02:52:01;;;;;;;;;13.50;11.25;;;;;14.19;40.31;97574.72;6271660;22;102036;-80
2022/02/01 02:54:29;;;;;;;;;15.00;12.00;;;;;14.18;40.99;97583.16;6293181;22;101998;-80
2022/02/01 02:57:02;;;;;;;;;11.00;10.75;;;;;14.15;40.71;97580.91;6285695;22;103324;-80
2022/02/01 02:59:29;;;;;;;;;10.50;10.00;;;;;14.16;40.71;97590.72;6294603;22;102184;-80
2022/02/01 03:01:57;;;;;;;;;13.00;11.75;;;;;14.16;40.71;97596.16;6288902;22;102092;-79
2022/02/01 03:04:28;;;;;;;;;12.50;11.00;;;;;14.15;40.11;97591.78;6281677;22;101766;-80
2022/02/01 03:06:55;;;;;;;;;15.75;11.50;;;;;14.16;40.20;97596.16;6278158;22;104977;-80
2022/02/01 03:09:23;;;;;;;;;12.50;10.75;;;;;14.15;40.80;97584.47;6288707;22;102719;-80
2022/02/01 03:11:52;;;;;;;;;13.00;11.50;;;;;14.14;40.77;97599.13;6288520;22;101728;-80
2022/02/01 03:14:27;;;;;;;;;11.00;10.00;;;;;14.13;40.15;97594.78;6287370;22;101993;-80
2022/02/01 03:22:09;;;;;;;;;11.25;11.00;;;;;14.10;40.56;97619.72;6288304;22;102004;-79
2022/02/01 03:24:36;;;;;;;;;17.50;14.25;;;;;14.10;40.53;97630.59;6295530;22;101770;-80
2022/02/01 03:27:04;;;;;;;;;9.75;9.50;;;;;14.12;40.32;97633.06;6280707;22;103445;-80
2022/02/01 03:29:31;;;;;;;;;12.50;11.25;;;;;14.12;41.03;97641.22;6286521;22;101698;-80
2022/02/01 03:31:58;;;;;;;;;14.00;11.00;;;;;14.13;41.08;97643.72;6286437;22;101774;-80
2022/02/01 03:34:25;;;;;;;;;10.75;10.00;;;;;14.16;40.54;97645.94;6284552;22;101947;-80
2022/02/01 03:36:52;;;;;;;;;12.00;10.00;;;;;14.17;40.85;97649.47;6285466;22;103534;-80
2022/02/01 03:39:19;;;;;;;;;13.50;11.00;;;;;14.18;40.43;97643.78;6289187;22;101837;-80
2022/02/01 03:41:46;;;;;;;;;10.00;10.00;;;;;14.20;40.96;97636.19;6284468;22;101667;-80
2022/02/01 03:44:13;;;;;;;;;14.50;10.00;;;;;14.21;41.23;97643.28;6290757;22;101706;-79
2022/02/01 03:46:44;;;;;;;;;9.25;6.00;;;;;14.23;40.05;97641.13;6288389;22;103347;-80
2022/02/01 03:49:11;;;;;;;;;11.50;9.75;;;;;14.25;40.74;97632.75;6280007;22;101742;-79
2022/02/01 03:51:38;;;;;;;;;10.00;9.25;;;;;14.25;40.50;97636.28;6292733;22;101937;-80
2022/02/01 03:54:05;;;;;;;;;16.50;11.25;;;;;14.25;40.85;97638.19;6290455;22;102090;-80
2022/02/01 03:56:32;;;;;;;;;13.25;10.75;;;;;14.27;40.60;97636.84;6299682;22;103229;-80
2022/02/01 03:58:59;;;;;;;;;12.00;10.75;;;;;14.27;40.26;97642.28;6323399;22;101714;-80
2022/02/01 04:01:29;;;;;;;;;8.75;8.00;;;;;14.28;40.97;97643.94;6293298;22;103822;-80
2022/02/01 04:03:56;;;;;;;;;10.25;9.00;;;;;14.29;40.28;97645.59;6326731;22;101972;-80
2022/02/01 04:06:23;;;;;;;;;9.00;8.75;;;;;14.29;40.72;97644.75;6323401;22;103342;-80
2022/02/01 04:08:50;;;;;;;;;11.25;10.75;;;;;14.29;40.26;97639.31;6312160;22;104977;-80
2022/02/01 04:11:18;;;;;;;;;11.00;11.00;;;;;14.28;40.24;97638.50;6323596;22;101809;-80
2022/02/01 04:13:45;;;;;;;;;11.00;10.25;;;;;14.29;40.82;97644.75;6326156;22;101967;-80
2022/02/01 04:16:12;;;;;;;;;8.00;5.50;;;;;14.28;40.28;97643.94;6287573;22;103113;-79
2022/02/01 04:18:39;;;;;;;;;10.75;10.00;;;;;14.28;40.44;97641.22;6327670;22;102035;-80
2022/02/01 04:21:06;;;;;;;;;10.50;9.50;;;;;14.29;40.46;97640.16;6321631;22;101796;-80
2022/02/01 04:23:33;;;;;;;;;12.75;10.00;;;;;14.28;40.35;97643.94;6329354;22;102504;-80
2022/02/01 04:26:01;;;;;;;;;12.00;9.25;;;;;14.28;40.45;97648.56;6322358;22;103457;-80
2022/02/01 04:28:28;;;;;;;;;11.75;9.75;;;;;14.25;40.62;97649.88;6317976;22;102245;-80
2022/02/01 04:30:55;;;;;;;;;12.00;10.25;;;;;14.25;40.03;97663.47;6295431;22;101836;-80
2022/02/01 04:33:22;;;;;;;;;12.50;9.25;;;;;14.25;40.65;97657.22;6325216;22;102109;-80
2022/02/01 04:35:49;;;;;;;;;9.50;8.00;;;;;14.24;40.17;97664.53;6323615;22;103570;-80
2022/02/01 04:38:16;;;;;;;;;11.00;10.00;;;;;14.23;40.66;97656.63;6324616;22;102010;-80
2022/02/01 04:40:43;;;;;;;;;10.50;7.75;;;;;14.22;40.85;97660.44;6325662;22;101817;-79
2022/02/01 04:43:11;;;;;;;;;11.50;9.75;;;;;14.20;40.36;97662.56;6308881;22;102078;-80
2022/02/01 04:45:39;;;;;;;;;10.00;8.00;;;;;14.19;41.08;97669.06;6317167;22;107772;-80
2022/02/01 04:48:07;;;;;;;;;12.00;9.00;;;;;14.19;40.06;97666.34;6321235;22;101739;-80
2022/02/01 04:50:34;;;;;;;;;12.00;10.00;;;;;14.17;40.77;97666.63;6319706;22;101827;-80
2022/02/01 04:53:01;;;;;;;;;11.00;9.00;;;;;14.14;39.87;97658.09;6320813;22;102543;-80
2022/02/01 04:55:43;;;;;;;;;10.00;8.75;;;;;14.10;39.97;97667.81;6315693;22;103292;-80
2022/02/01 04:58:10;;;;;;;;;9.25;8.25;;;;;14.07;40.42;97680.03;6324451;22;101572;-80
2022/02/01 05:00:37;;;;;;;;;10.50;9.75;;;;;14.07;40.47;97685.47;6323410;22;103157;-80
2022/02/01 05:03:04;;;;;;;;;8.50;8.00;;;;;14.11;40.60;97683.06;6319437;22;102022;-80
2022/02/01 05:05:31;;;;;;;;;11.00;9.00;;;;;14.09;40.69;97680.63;6320293;22;103320;-80
2022/02/01 05:08:01;;;;;;;;;10.25;8.75;;;;;14.09;40.54;97680.63;6289136;22;102073;-80
2022/02/01 05:10:52;;;;;;;;;9.50;8.00;;;;;14.09;40.82;97691.50;6327314;22;102408;-80
2022/02/01 05:15:48;;;;;;;;;10.00;10.00;;;;;14.10;40.92;97695.84;6313116;22;103429;-80
2022/02/01 05:18:22;;;;;;;;;9.75;8.25;;;;;14.10;40.72;97690.41;6309868;22;102102;-79
2022/02/01 05:23:23;;;;;;;;;10.50;9.00;;;;;14.11;40.30;97712.97;6326735;22;101914;-80
2022/02/01 05:25:50;;;;;;;;;6.00;6.00;;;;;14.12;40.33;97712.75;6318777;22;105331;-80
2022/02/01 05:28:18;;;;;;;;;9.00;8.50;;;;;14.13;40.55;97722.56;6325454;22;102691;-80
2022/02/01 05:30:45;;;;;;;;;12.00;10.00;;;;;14.15;40.23;97725.84;6313096;22;101859;-80
2022/02/01 05:33:12;;;;;;;;;8.00;6.50;;;;;14.14;40.73;97726.06;6323805;22;108786;-79
2022/02/01 05:35:39;;;;;;;;;6.25;6.25;;;;;14.17;40.80;97726.44;6324278;22;103349;-80
2022/02/01 05:38:06;;;;;;;;;8.25;6.50;;;;;14.18;40.86;97738.13;6316483;22;101829;-80
2022/02/01 05:40:33;;;;;;;;;11.00;9.00;;;;;14.19;40.69;97739.75;6317494;22;102090;-80
2022/02/01 05:43:04;;;;;;;;;10.50;8.00;;;;;14.21;40.25;97752.06;6322212;22;102220;-80
2022/02/01 05:45:34;;;;;;;;;8.50;6.00;;;;;14.20;40.78;97744.97;6316907;22;103405;-80
2022/02/01 05:48:02;;;;;;;;;8.50;5.75;;;;;14.22;40.64;97747.44;6319324;22;101872;-80
2022/02/01 05:50:33;;;;;;;;;10.00;9.00;;;;;14.24;40.57;97750.72;6289947;22;102154;-80
2022/02/01 05:53:00;;;;;;;;;8.75;6.00;;;;;14.24;40.24;97750.72;6323690;22;102050;-80
2022/02/01 05:55:27;;;;;;;;;6.00;6.00;;;;;14.25;40.82;97753.22;6316902;22;110048;-80
2022/02/01 05:57:55;;;;;;;;;6.00;5.75;;;;;14.25;40.23;97755.94;6322492;22;102142;-80
2022/02/01 06:00:22;;;;;;;;;9.00;6.50;;;;;14.26;40.35;97773.06;6312184;22;102089;-80
2022/02/01 06:02:59;;;;;;;;;9.75;8.25;;;;;14.25;40.55;97757.81;5020515;27;102021;-80
2022/02/01 06:05:28;;;;;;;;;6.75;6.25;;;;;14.26;40.03;97760.31;5033263;27;102458;-80
2022/02/01 06:07:55;;;;;;;;;8.00;8.00;;;;;14.26;40.49;97771.19;5028423;27;103567;-79
2022/02/01 06:10:22;;;;;;;;;8.75;7.00;;;;;14.26;40.77;97776.63;5025143;27;102140;-79
2022/02/01 06:12:49;;;;;;;;;9.50;8.00;;;;;14.27;40.07;97763.84;5026572;27;102652;-79
2022/02/01 06:15:18;;;;;;;;;8.00;5.75;;;;;14.27;40.15;97772.81;5024758;27;102523;-79
2022/02/01 06:17:45;;;;;;;;;9.50;7.75;;;;;14.27;40.22;97775.53;5029407;27;103406;-79
2022/02/01 06:20:12;;;;;;;;;9.00;6.00;;;;;14.26;39.92;97782.06;5030452;27;101799;-79
2022/02/01 06:22:39;;;;;;;;;8.75;7.50;;;;;14.28;40.63;97789.94;5029408;27;102694;-79
2022/02/01 06:25:08;;;;;;;;;7.75;6.50;;;;;14.27;39.83;97791.84;5026884;27;101867;-79
2022/02/01 06:27:35;;;;;;;;;9.25;8.00;;;;;14.26;40.44;97797.53;5019010;27;103315;-80
2022/02/01 06:30:04;;;;;;;;;9.75;7.50;;;;;14.25;40.24;97791.28;5018715;27;101880;-79
2022/02/01 06:32:38;;;;;;;;;8.50;6.50;;;;;14.25;40.74;97790.44;5027382;27;102976;-80
2022/02/01 06:35:06;;;;;;;;;8.50;6.00;;;;;14.24;40.13;97795.06;5014809;27;101993;-79
2022/02/01 06:37:33;;;;;;;;;8.25;5.25;;;;;14.22;40.57;97797.22;5025641;27;103609;-79
2022/02/01 06:40:01;;;;;;;;;9.75;6.00;;;;;14.19;40.76;97800.41;5027411;27;102638;-79
2022/02/01 06:42:28;;;;;;;;;10.25;5.75;;;;;14.19;40.63;97807.72;5032685;27;101609;-79
2022/02/01 06:44:55;;;;;;;;;10.00;6.50;;;;;14.18;40.07;97798.75;5031759;27;102119;-80
2022/02/01 06:47:22;;;;;;;;;7.75;6.00;;;;;14.17;40.03;97797.13;5043539;27;103393;-79
2022/02/01 06:49:49;;;;;;;;;10.00;6.50;;;;;14.16;40.69;97791.91;5031323;27;101747;-79
2022/02/01 06:52:16;;;;;;;;;5.00;5.00;;;;;14.12;40.23;97797.03;5031963;27;101852;-79
2022/02/01 06:54:43;;;;;;;;;10.50;8.25;;;;;14.11;39.80;97794.53;5031745;27;101986;-79
2022/02/01 06:57:10;;;;;;;;;11.00;7.00;;;;;14.09;40.14;97802.13;5033089;27;108115;-79
2022/02/01 06:59:37;;;;;;;;;6.00;5.25;;;;;14.07;40.69;97807.78;5037613;27;101762;-79
2022/02/01 07:02:04;;;;;;;;;8.75;8.00;;;;;14.07;40.32;97815.94;5034122;27;101849;-79
2022/02/01 07:04:37;;;;;;;;;6.50;5.50;;;;;14.09;40.54;97824.69;5027320;27;102111;-80
2022/02/01 07:07:04;;;;;;;;;11.00;7.50;;;;;14.09;40.14;97824.69;5035719;27;103468;-79
2022/02/01 07:09:33;;;;;;;;;12.50;8.00;;;;;14.09;40.67;97823.88;5032774;27;101914;-79
2022/02/01 07:12:00;;;;;;;;;8.25;6.50;;;;;14.08;40.90;97827.66;5022929;27;102201;-80
2022/02/01 07:14:27;;;;;;;;;5.00;5.00;;;;;14.08;40.68;97828.47;5024031;27;102034;-79
2022/02/01 07:16:54;;;;;;;;;8.75;7.75;;;;;14.07;40.19;97836.88;5011955;27;103332;-79
2022/02/01 07:19:21;;;;;;;;;6.00;6.00;;;;;14.08;41.11;97833.09;5027492;27;101880;-79
2022/02/01 07:21:48;;;;;;;;;9.50;5.75;;;;;14.08;40.49;97831.19;5028348;27;101823;-79
2022/02/01 07:24:25;;;;;;;;;5.50;4.75;;;;;14.08;40.55;97833.91;5023796;27;101875;-79
2022/02/01 07:26:57;;;;;;;;;8.00;6.75;;;;;14.11;40.43;97838.03;5022813;27;103374;-80
2022/02/01 07:29:25;;;;;;;;;7.50;6.00;;;;;14.12;40.89;97835.06;5020148;27;102041;-79
2022/02/01 07:31:52;;;;;;;;;8.50;6.00;;;;;14.13;40.97;97835.91;5007991;27;102226;-80
2022/02/01 07:34:19;;;;;;;;;8.50;5.50;;;;;14.14;40.20;97834.81;5022548;27;102346;-79
2022/02/01 07:36:46;;;;;;;;;7.00;5.75;;;;;14.15;40.19;97842.75;5034694;27;103304;-80
2022/02/01 07:39:13;;;;;;;;;6.50;5.25;;;;;14.16;40.29;97841.69;5017577;27;102086;-79
2022/02/01 07:41:40;;;;;;;;;5.25;4.75;;;;;14.18;40.10;97838.72;5024987;27;104600;-79
2022/02/01 07:44:07;;;;;;;;;8.00;5.50;;;;;14.20;39.84;97844.72;5017269;27;102107;-79
2022/02/01 07:46:34;;;;;;;;;9.00;6.00;;;;;14.22;40.79;97842.59;5014281;27;103407;-79
2022/02/01 07:49:02;;;;;;;;;8.50;6.00;;;;;14.21;40.01;97839.06;5019823;27;101850;-79
2022/02/01 07:51:29;;;;;;;;;9.25;7.00;;;;;14.21;40.95;97847.22;5020031;27;101699;-80
2022/02/01 07:53:56;;;;;;;;;5.50;5.00;;;;;14.23;40.05;97842.34;5025754;27;101801;-79
2022/02/01 07:56:23;;;;;;;;;6.00;6.00;;;;;14.24;39.97;97843.19;5020064;27;103548;-79
2022/02/01 07:58:50;;;;;;;;;8.75;6.00;;;;;14.24;40.04;97843.19;5014129;27;101721;-79
2022/02/01 08:01:17;;;;;;;;;8.25;6.00;;;;;14.23;40.67;97842.34;5027758;27;101847;-79
2022/02/01 08:03:45;;;;;;;;;6.00;5.00;;;;;14.24;40.09;97843.19;5022469;27;103316;-78
2022/02/01 08:06:12;;;;;;;;;8.00;5.25;;;;;14.24;40.79;97844.00;5014541;27;103364;-80
2022/02/01 08:08:39;;;;;;;;;3.75;3.25;;;;;14.24;40.16;97854.88;5019922;27;102057;-79
2022/02/01 08:11:11;;;;;;;;;6.25;5.00;;;;;14.27;40.13;97850.88;5014673;27;102092;-80
2022/02/01 08:19:22;;;;;;;;;5.25;4.75;;;;;14.22;39.83;97835.28;5014121;27;101899;-79
2022/02/01 08:21:52;;;;;;;;;5.75;4.00;;;;;14.28;40.15;97850.59;5012107;27;105400;-79
2022/02/01 08:24:19;;;;;;;;;7.25;6.00;;;;;14.26;40.59;97844.59;5012333;27;102155;-79
2022/02/01 08:26:47;;;;;;;;;8.25;5.75;;;;;14.26;40.62;97841.88;5009188;27;104118;-79
2022/02/01 08:29:15;;;;;;;;;5.25;5.00;;;;;14.28;40.66;97844.34;5022121;27;101898;-79
2022/02/01 08:31:46;;;;;;;;;4.75;4.50;;;;;14.27;40.52;97854.38;5009877;27;102132;-79
2022/02/01 08:34:14;;;;;;;;;5.00;4.75;;;;;14.27;40.23;97859.81;5014458;27;101760;-79
2022/02/01 08:36:41;;;;;;;;;8.25;5.75;;;;;14.25;39.96;97851.09;5006540;27;108191;-79
2022/02/01 08:39:08;;;;;;;;;7.75;5.25;;;;;14.23;40.57;97847.78;5003673;27;101851;-79
2022/02/01 08:41:36;;;;;;;;;5.00;4.75;;;;;14.23;40.65;97855.94;5018410;27;102074;-79
2022/02/01 08:44:03;;;;;;;;;8.75;6.00;;;;;14.21;40.12;97844.50;5022315;27;102119;-79
2022/02/01 08:46:30;;;;;;;;;6.50;4.75;;;;;14.21;40.76;97844.50;5023098;27;103361;-79
2022/02/01 08:48:57;;;;;;;;;2.00;2.00;;;;;14.20;40.17;97851.00;5032960;27;102112;-79
2022/02/01 08:51:27;;;;;;;;;8.50;7.00;;;;;14.19;40.60;97852.06;5018998;27;101875;-79
2022/02/01 08:53:57;;;;;;;;;6.00;4.50;;;;;14.18;39.71;97855.84;5015510;27;101820;-79
2022/02/01 08:59:26;;;;;;;;;6.00;4.75;;;;;14.20;39.81;97844.72;5033211;27;101734;-79
2022/02/01 09:01:53;;;;;;;;;5.00;4.00;;;;;14.19;40.55;97846.63;5011262;27;101717;-79
2022/02/01 09:04:22;;;;;;;;;6.25;4.75;;;;;14.18;40.10;97850.41;5018326;27;102199;-79
2022/02/01 09:06:49;;;;;;;;;5.00;5.00;;;;;14.20;39.81;97847.44;5025228;27;103490;-79
2022/02/01 09:09:16;;;;;;;;;4.75;3.00;;;;;14.19;40.17;97846.63;5021883;27;101967;-79
2022/02/01 09:11:43;;;;;;;;;6.00;5.75;;;;;14.22;40.59;97854.31;5019681;27;102394;-80
2022/02/01 09:14:10;;;;;;;;;5.50;5.00;;;;;14.21;40.26;97844.50;5024721;27;102210;-80
2022/02/01 09:16:37;;;;;;;;;4.00;4.00;;;;;14.19;40.61;97849.34;5015815;27;103371;-79
2022/02/01 09:19:04;;;;;;;;;5.75;5.00;;;;;14.19;39.94;97845.78;5023197;27;101647;-79
2022/02/01 09:21:31;;;;;;;;;6.00;5.00;;;;;14.18;40.54;97853.13;5019499;27;101862;-79
2022/02/01 09:23:58;;;;;;;;;3.00;2.00;;;;;14.19;40.58;97862.09;5016535;27;101767;-79
2022/02/01 09:26:26;;;;;;;;;5.25;4.00;;;;;14.19;40.27;97859.38;5023609;27;103338;-79
2022/02/01 09:29:13;;;;;;;;;8.50;5.00;;;;;14.19;39.97;97852.06;5008581;28;101777;-79
2022/02/01 09:31:40;;;;;;;;;8.25;6.50;;;;;14.23;40.54;97855.94;5040349;27;102004;-79
2022/02/01 09:34:07;;;;;;;;;5.25;4.50;;;;;14.20;40.55;97853.72;5018365;27;104276;-79
2022/02/01 09:36:34;;;;;;;;;5.00;4.00;;;;;14.24;40.71;97863.03;5023022;27;103367;-79
2022/02/01 09:39:02;;;;;;;;;8.00;4.50;;;;;14.25;40.12;97853.81;5032496;27;102199;-79
2022/02/01 09:41:32;;;;;;;;;5.75;5.75;;;;;14.28;40.51;97869.63;5024846;27;102104;-79
2022/02/01 09:43:59;;;;;;;;;4.00;4.00;;;;;14.30;39.80;97874.84;5022044;27;102063;-79
2022/02/01 09:46:26;;;;;;;;;7.00;5.00;;;;;14.32;40.38;97864.53;5012054;27;103380;-79
2022/02/01 09:48:54;;;;;;;;;6.50;5.50;;;;;14.32;39.98;97868.09;5016268;27;102890;-80
2022/02/01 09:51:21;;;;;;;;;5.25;5.25;;;;;14.36;40.41;97868.47;5018232;27;104852;-79
2022/02/01 09:54:08;;;;;;;;;4.00;4.00;;;;;14.37;40.47;97861.94;5018732;27;101710;-79
2022/02/01 09:56:35;;;;;;;;;4.25;4.00;;;;;14.38;39.78;97866.31;5008261;27;103395;-80
2022/02/01 09:59:12;;;;;;;;;8.00;4.50;;;;;14.40;39.81;97850.59;5018455;27;102082;-79
2022/02/01 10:01:44;;;;;;;;;5.75;4.00;;;;;14.41;39.68;97854.94;4994382;27;110136;-79
2022/02/01 10:04:12;;;;;;;;;5.00;4.75;;;;;14.42;40.41;97847.63;5027376;27;103096;-80
2022/02/01 10:06:41;;;;;;;;;7.00;4.75;;;;;14.42;40.46;97839.47;5016002;27;103381;-79
2022/02/01 10:09:28;;;;;;;;;4.50;4.50;;;;;14.42;40.48;97847.63;5017882;27;102059;-79
2022/02/01 10:11:56;;;;;;;;;6.75;4.00;;;;;14.43;40.00;97852.00;5013956;27;101991;-79
2022/02/01 10:14:29;;;;;;;;;3.00;3.00;;;;;14.42;40.29;97863.94;5014556;27;101732;-79
2022/02/01 10:16:59;;;;;;;;;6.50;4.50;;;;;14.42;40.44;97853.06;5021620;27;103424;-79
2022/02/01 10:19:26;;;;;;;;;5.00;4.00;;;;;14.41;40.11;97854.94;5039182;27;101914;-79
2022/02/01 10:21:57;;;;;;;;;7.75;4.50;;;;;14.43;40.37;97852.81;5026783;27;102136;-79
2022/02/01 10:24:32;;;;;;;;;5.25;4.25;;;;;14.42;40.21;97850.34;5012514;27;101745;-79
2022/02/01 10:27:07;;;;;;;;;5.00;4.00;;;;;14.42;40.19;97847.63;5020714;27;103382;-79
2022/02/01 10:29:35;;;;;;;;;5.50;4.00;;;;;14.41;39.94;97844.06;5021795;27;101707;-79
2022/02/01 10:32:13;;;;;;;;;3.50;3.00;;;;;14.40;39.62;97841.63;5012699;27;101751;-79
2022/02/01 10:34:43;;;;;;;;;3.50;3.50;;;;;14.40;40.29;97836.19;5017167;27;102117;-79
2022/02/01 10:37:30;;;;;;;;;5.00;3.00;;;;;14.38;39.68;97816.53;5023612;27;109370;-79
2022/02/01 10:40:05;;;;;;;;;5.00;5.00;;;;;14.37;40.15;97815.72;5017764;27;103402;-79
2022/02/01 10:42:32;;;;;;;;;8.00;5.00;;;;;14.35;40.27;97817.84;5014810;27;101977;-79
2022/02/01 10:45:00;;;;;;;;;6.25;4.50;;;;;14.34;40.21;97815.34;5019737;27;102105;-79
2022/02/01 10:47:36;;;;;;;;;4.00;3.50;;;;;14.33;40.11;97811.81;5020693;27;103564;-79
2022/02/01 10:50:14;;;;;;;;;2.00;2.00;;;;;14.32;40.52;97806.63;5023102;27;102370;-79
2022/02/01 10:52:45;;;;;;;;;5.25;4.00;;;;;14.29;39.75;97814.19;5010788;27;101942;-80
2022/02/01 10:55:13;;;;;;;;;4.00;3.00;;;;;14.30;39.76;97804.16;5009476;27;102036;-79
2022/02/01 10:57:40;;;;;;;;;3.25;3.00;;;;;14.26;39.57;97809.25;5012426;27;103366;-79
2022/02/01 11:00:09;;;;;;;;;6.00;4.00;;;;;14.27;39.59;97802.72;5047831;27;102792;-79
2022/02/01 11:02:44;;;;;;;;;3.00;3.00;;;;;14.27;39.78;97800.00;5012415;27;101931;-79
2022/02/01 11:05:16;;;;;;;;;4.00;4.00;;;;;14.27;39.76;97804.63;5023019;27;102215;-79
2022/02/01 11:08:03;;;;;;;;;5.00;4.00;;;;;14.26;40.31;97798.38;5015019;27;106982;-79
2022/02/01 11:10:30;;;;;;;;;6.00;4.50;;;;;14.26;40.40;97790.22;5005095;27;102422;-79
2022/02/01 11:13:07;;;;;;;;;3.75;3.75;;;;;14.27;40.09;97778.25;5013390;27;102140;-79
2022/02/01 11:15:34;;;;;;;;;4.00;4.00;;;;;14.27;40.01;97783.69;5027049;27;101860;-79
2022/02/01 11:18:09;;;;;;;;;4.25;3.00;;;;;14.29;40.35;97794.31;5011519;27;103392;-79
2022/02/01 11:20:37;;;;;;;;;4.00;4.00;;;;;14.29;40.02;97787.00;5018250;27;101927;-79
2022/02/01 11:23:06;;;;;;;;;4.50;4.00;;;;;14.32;39.97;97790.31;5026301;27;101890;-79
2022/02/01 11:25:44;;;;;;;;;3.75;3.50;;;;;14.32;39.71;97782.94;5022025;27;102182;-79
2022/02/01 11:28:36;;;;;;;;;5.75;5.50;;;;;14.33;40.09;97784.59;5019518;27;103830;-79
2022/02/01 11:31:03;;;;;;;;;3.00;2.00;;;;;14.34;40.15;97790.88;5042981;27;102161;-79
2022/02/01 11:33:38;;;;;;;;;4.75;3.50;;;;;14.35;40.02;97787.09;5021826;27;101756;-79
2022/02/01 11:36:07;;;;;;;;;6.00;4.25;;;;;14.37;40.24;97793.13;5033503;27;101787;-79
2022/02/01 11:38:34;;;;;;;;;5.00;3.00;;;;;14.37;39.77;97779.53;5011669;27;104343;-79
2022/02/01 11:41:06;;;;;;;;;5.00;4.00;;;;;14.38;40.08;97782.00;5024692;27;102352;-79
2022/02/01 11:43:39;;;;;;;;;5.00;4.00;;;;;14.39;39.68;97775.50;5007510;27;101878;-79
2022/02/01 11:46:09;;;;;;;;;3.50;3.50;;;;;14.41;39.75;97761.69;5018589;27;101657;-79
2022/02/01 11:48:38;;;;;;;;;4.50;3.00;;;;;14.41;39.80;97762.47;5018525;27;103571;-79
2022/02/01 11:51:09;;;;;;;;;3.50;3.00;;;;;14.42;39.55;97764.13;5016663;27;101668;-79
2022/02/01 11:53:40;;;;;;;;;4.00;3.00;;;;;14.43;39.53;97759.50;5013624;27;102300;-79
2022/02/01 11:56:09;;;;;;;;;3.75;3.75;;;;;14.43;39.66;97748.63;5015460;27;101850;-79
2022/02/01 11:58:39;;;;;;;;;3.75;3.00;;;;;14.42;39.57;97749.69;5005128;27;103575;-79
2022/02/01 12:01:23;;;;;;;;;3.50;3.50;;;;;14.44;40.25;97747.56;4990587;28;102178;-79
2022/02/01 12:04:03;;;;;;;;;3.75;3.00;;;;;14.40;39.73;97741.81;5010569;27;101667;-79
2022/02/01 12:06:46;;;;;;;;;7.50;4.50;;;;;14.41;39.72;97738.00;5015445;27;101745;-79
2022/02/01 12:09:21;;;;;;;;;3.25;3.25;;;;;14.40;40.05;97740.97;5007504;27;105014;-79
2022/02/01 12:11:56;;;;;;;;;3.25;3.25;;;;;14.39;39.84;97737.44;5021307;27;104049;-79
2022/02/01 12:14:23;;;;;;;;;6.00;4.00;;;;;14.37;40.16;97738.72;5011426;27;102408;-79
2022/02/01 12:16:51;;;;;;;;;5.00;3.75;;;;;14.37;40.05;97746.91;5012489;27;102006;-79
2022/02/01 12:19:37;;;;;;;;;4.00;4.00;;;;;14.34;39.70;97729.16;5030936;27;104015;-79
2022/02/01 12:22:50;;;;;;;;;3.00;3.00;;;;;14.34;39.87;97729.16;5016354;27;101787;-79
2022/02/01 12:25:17;;;;;;;;;5.50;4.00;;;;;14.34;39.48;97722.88;5037901;27;102088;-79
2022/02/01 12:27:44;;;;;;;;;3.50;3.00;;;;;14.32;39.51;97722.31;4992398;27;102009;-79
2022/02/01 12:30:11;;;;;;;;;4.00;3.00;;;;;14.30;40.29;97717.94;5004562;27;103824;-79
2022/02/01 12:32:55;;;;;;;;;2.00;2.00;;;;;14.30;40.11;97711.69;5021150;27;101724;-79
2022/02/01 12:35:35;;;;;;;;;4.25;3.75;;;;;14.29;39.93;97704.59;5015783;27;101749;-80
2022/02/01 12:38:05;;;;;;;;;3.50;3.50;;;;;14.28;40.20;97700.22;5016675;27;101779;-79
2022/02/01 12:40:37;;;;;;;;;4.00;4.00;;;;;14.26;39.74;97705.91;5024865;27;103129;-79
2022/02/01 12:43:16;;;;;;;;;6.00;5.00;;;;;14.26;39.62;97703.19;5012180;27;102564;-79
2022/02/01 12:45:56;;;;;;;;;5.00;3.50;;;;;14.25;39.65;97693.38;5017180;27;101687;-79
2022/02/01 12:48:24;;;;;;;;;4.00;3.00;;;;;14.24;39.49;97691.72;5011973;27;102100;-79
2022/02/01 12:50:59;;;;;;;;;5.25;4.00;;;;;14.22;39.71;97688.44;5014614;27;103320;-79
2022/02/01 12:53:26;;;;;;;;;4.50;4.00;;;;;14.22;39.99;97696.59;4998890;27;101833;-79
2022/02/01 12:55:53;;;;;;;;;7.75;5.00;;;;;14.22;39.33;97698.50;5022949;27;101766;-79
2022/02/01 12:58:20;;;;;;;;;3.50;3.00;;;;;14.22;40.17;97690.34;5020311;27;101916;-80
2022/02/01 13:00:52;;;;;;;;;4.00;3.75;;;;;14.21;39.61;97686.78;5043223;27;108356;-79
2022/02/01 13:03:19;;;;;;;;;5.00;4.00;;;;;14.21;40.05;97678.63;5021673;27;101627;-79